sensor_id;sensor_type;location;lat;lon;timestamp;temperature;humidity
10692;DHT22;5396;50.950;6.988;2023-04-01T00:00:19;10.90;99.90
10692;DHT22;5396;50.950;6.988;2023-04-01T00:02:45;10.90;99.90
10692;DHT22;5396;50.950;6.988;2023-04-01T00:05:11;10.90;99.90
10692;DHT22;5396;50.950;6.988;2023-04-01T00:07:38;10.90;99.90
10692;DHT22;5396;50.950;6.988;2023-04-01T00:10:08;10.90;99.90
10692;DHT22;5396;50.950;6.988;2023-04-01T00:12:35;10.90;99.90
10692;DHT22;5396;50.950;6.988;2023-04-01T00:15:01;10.90;99.90
10692;DHT22;5396;50.950;6.988;2023-04-01T00:17:27;11.00;99.90
10692;DHT22;5396;50.950;6.988;2023-04-01T00:19:54;11.00;99.90
10692;DHT22;5396;50.950;6.988;2023-04-01T00:22:20;11.00;99.90
10692;DHT22;5396;50.950;6.988;2023-04-01T00:24:46;11.10;99.90
10692;DHT22;5396;50.950;6.988;2023-04-01T00:27:12;11.10;99.90
10692;DHT22;5396;50.950;6.988;2023-04-01T00:29:37;11.10;99.90
10692;DHT22;5396;50.950;6.988;2023-04-01T00:32:03;11.10;99.90
10692;DHT22;5396;50.950;6.988;2023-04-01T00:34:29;11.10;99.90
10692;DHT22;5396;50.950;6.988;2023-04-01T00:36:54;11.10;99.90
10692;DHT22;5396;50.950;6.988;2023-04-01T00:39:22;11.10;99.90
10692;DHT22;5396;50.950;6.988;2023-04-01T00:41:48;11.10;99.90
10692;DHT22;5396;50.950;6.988;2023-04-01T00:46:43;11.10;99.90
10692;DHT22;5396;50.950;6.988;2023-04-01T00:49:09;11.10;99.90
10692;DHT22;5396;50.950;6.988;2023-04-01T00:51:36;11.10;99.90
10692;DHT22;5396;50.950;6.988;2023-04-01T00:54:04;11.00;99.90
10692;DHT22;5396;50.950;6.988;2023-04-01T00:56:36;10.90;99.90
10692;DHT22;5396;50.950;6.988;2023-04-01T00:59:24;11.00;99.90
10692;DHT22;5396;50.950;6.988;2023-04-01T01:01:50;10.90;99.90
10692;DHT22;5396;50.950;6.988;2023-04-01T01:04:39;11.00;99.90
10692;DHT22;5396;50.950;6.988;2023-04-01T01:07:29;11.00;99.90
10692;DHT22;5396;50.950;6.988;2023-04-01T01:12:43;11.00;99.90
10692;DHT22;5396;50.950;6.988;2023-04-01T01:28:35;11.00;99.90
10692;DHT22;5396;50.950;6.988;2023-04-01T01:34:14;11.10;99.90
10692;DHT22;5396;50.950;6.988;2023-04-01T01:36:42;11.10;99.90
10692;DHT22;5396;50.950;6.988;2023-04-01T01:39:12;11.10;99.90
10692;DHT22;5396;50.950;6.988;2023-04-01T01:41:39;11.00;99.90
10692;DHT22;5396;50.950;6.988;2023-04-01T01:44:08;11.00;99.90
10692;DHT22;5396;50.950;6.988;2023-04-01T01:46:34;10.90;99.90
10692;DHT22;5396;50.950;6.988;2023-04-01T01:49:02;10.90;99.90
10692;DHT22;5396;50.950;6.988;2023-04-01T01:51:31;10.80;99.90
10692;DHT22;5396;50.950;6.988;2023-04-01T01:53:56;10.70;99.90
10692;DHT22;5396;50.950;6.988;2023-04-01T01:56:23;10.60;99.90
10692;DHT22;5396;50.950;6.988;2023-04-01T01:59:00;10.50;99.90
10692;DHT22;5396;50.950;6.988;2023-04-01T02:01:29;10.40;99.90
10692;DHT22;5396;50.950;6.988;2023-04-01T02:03:58;10.40;99.90
10692;DHT22;5396;50.950;6.988;2023-04-01T02:06:27;10.40;99.90
10692;DHT22;5396;50.950;6.988;2023-04-01T02:09:08;10.30;99.90
10692;DHT22;5396;50.950;6.988;2023-04-01T02:11:41;10.20;99.90
10692;DHT22;5396;50.950;6.988;2023-04-01T02:14:18;10.10;99.90
10692;DHT22;5396;50.950;6.988;2023-04-01T02:16:56;10.00;99.90
10692;DHT22;5396;50.950;6.988;2023-04-01T02:19:30;9.90;99.90
10692;DHT22;5396;50.950;6.988;2023-04-01T02:21:58;9.90;99.90
10692;DHT22;5396;50.950;6.988;2023-04-01T02:24:26;9.80;99.90
10692;DHT22;5396;50.950;6.988;2023-04-01T02:26:53;9.80;99.90
10692;DHT22;5396;50.950;6.988;2023-04-01T02:29:22;9.70;99.90
10692;DHT22;5396;50.950;6.988;2023-04-01T02:31:49;9.70;99.90
10692;DHT22;5396;50.950;6.988;2023-04-01T02:34:15;9.70;99.90
10692;DHT22;5396;50.950;6.988;2023-04-01T02:36:41;9.60;99.90
10692;DHT22;5396;50.950;6.988;2023-04-01T02:39:08;9.70;99.90
10692;DHT22;5396;50.950;6.988;2023-04-01T02:41:42;9.60;99.90
10692;DHT22;5396;50.950;6.988;2023-04-01T02:44:09;9.60;99.90
10692;DHT22;5396;50.950;6.988;2023-04-01T02:46:36;9.70;99.90
10692;DHT22;5396;50.950;6.988;2023-04-01T02:49:02;9.70;99.90
10692;DHT22;5396;50.950;6.988;2023-04-01T02:51:28;9.60;99.90
10692;DHT22;5396;50.950;6.988;2023-04-01T02:53:54;9.60;99.90
10692;DHT22;5396;50.950;6.988;2023-04-01T02:56:20;9.60;99.90
10692;DHT22;5396;50.950;6.988;2023-04-01T02:58:46;9.60;99.90
10692;DHT22;5396;50.950;6.988;2023-04-01T03:01:11;9.60;99.90
10692;DHT22;5396;50.950;6.988;2023-04-01T03:03:37;9.60;99.90
10692;DHT22;5396;50.950;6.988;2023-04-01T03:06:11;9.50;99.90
10692;DHT22;5396;50.950;6.988;2023-04-01T03:08:37;9.50;99.90
10692;DHT22;5396;50.950;6.988;2023-04-01T03:11:03;9.50;99.90
10692;DHT22;5396;50.950;6.988;2023-04-01T03:13:28;9.50;99.90
10692;DHT22;5396;50.950;6.988;2023-04-01T03:15:54;9.50;99.90
10692;DHT22;5396;50.950;6.988;2023-04-01T03:18:20;9.50;99.90
10692;DHT22;5396;50.950;6.988;2023-04-01T03:20:45;9.50;99.90
10692;DHT22;5396;50.950;6.988;2023-04-01T03:23:11;9.50;99.90
10692;DHT22;5396;50.950;6.988;2023-04-01T03:25:37;9.50;99.90
10692;DHT22;5396;50.950;6.988;2023-04-01T03:28:03;9.50;99.90
10692;DHT22;5396;50.950;6.988;2023-04-01T03:30:29;9.50;99.90
10692;DHT22;5396;50.950;6.988;2023-04-01T03:32:57;9.50;99.90
10692;DHT22;5396;50.950;6.988;2023-04-01T03:35:24;9.50;99.90
10692;DHT22;5396;50.950;6.988;2023-04-01T03:37:51;9.50;99.90
10692;DHT22;5396;50.950;6.988;2023-04-01T03:40:16;9.50;99.90
10692;DHT22;5396;50.950;6.988;2023-04-01T03:42:42;9.50;99.90
10692;DHT22;5396;50.950;6.988;2023-04-01T03:45:08;9.50;99.90
10692;DHT22;5396;50.950;6.988;2023-04-01T03:47:34;9.50;99.90
10692;DHT22;5396;50.950;6.988;2023-04-01T03:50:00;9.40;99.90
10692;DHT22;5396;50.950;6.988;2023-04-01T03:52:26;9.50;99.90
10692;DHT22;5396;50.950;6.988;2023-04-01T03:54:51;9.40;99.90
10692;DHT22;5396;50.950;6.988;2023-04-01T03:57:17;9.40;99.90
10692;DHT22;5396;50.950;6.988;2023-04-01T03:59:42;9.50;99.90
10692;DHT22;5396;50.950;6.988;2023-04-01T04:02:08;9.40;99.90
10692;DHT22;5396;50.950;6.988;2023-04-01T04:04:33;9.40;99.90
10692;DHT22;5396;50.950;6.988;2023-04-01T04:06:59;9.40;99.90
10692;DHT22;5396;50.950;6.988;2023-04-01T04:09:24;9.50;99.90
10692;DHT22;5396;50.950;6.988;2023-04-01T04:11:50;9.40;99.90
10692;DHT22;5396;50.950;6.988;2023-04-01T04:14:16;9.50;99.90
10692;DHT22;5396;50.950;6.988;2023-04-01T04:16:42;9.60;99.90
10692;DHT22;5396;50.950;6.988;2023-04-01T04:19:07;9.70;99.90
10692;DHT22;5396;50.950;6.988;2023-04-01T04:21:33;9.80;99.90
10692;DHT22;5396;50.950;6.988;2023-04-01T04:24:00;9.90;99.90
10692;DHT22;5396;50.950;6.988;2023-04-01T04:26:26;9.90;99.90
10692;DHT22;5396;50.950;6.988;2023-04-01T04:28:51;10.00;99.90
10692;DHT22;5396;50.950;6.988;2023-04-01T04:31:22;10.00;99.90
10692;DHT22;5396;50.950;6.988;2023-04-01T04:33:48;10.00;99.90
10692;DHT22;5396;50.950;6.988;2023-04-01T04:36:13;10.00;99.90
10692;DHT22;5396;50.950;6.988;2023-04-01T04:38:39;10.00;99.90
10692;DHT22;5396;50.950;6.988;2023-04-01T04:41:09;10.00;99.90
10692;DHT22;5396;50.950;6.988;2023-04-01T04:43:35;10.00;99.90
10692;DHT22;5396;50.950;6.988;2023-04-01T04:46:12;10.00;99.90
10692;DHT22;5396;50.950;6.988;2023-04-01T04:48:38;9.90;99.90
10692;DHT22;5396;50.950;6.988;2023-04-01T04:51:04;9.80;99.90
10692;DHT22;5396;50.950;6.988;2023-04-01T04:53:29;9.80;99.90
10692;DHT22;5396;50.950;6.988;2023-04-01T04:55:55;9.80;99.90
10692;DHT22;5396;50.950;6.988;2023-04-01T04:58:21;9.70;99.90
10692;DHT22;5396;50.950;6.988;2023-04-01T05:00:46;9.70;99.90
10692;DHT22;5396;50.950;6.988;2023-04-01T05:03:12;9.70;99.90
10692;DHT22;5396;50.950;6.988;2023-04-01T05:05:39;9.60;99.90
10692;DHT22;5396;50.950;6.988;2023-04-01T05:08:05;9.50;99.90
10692;DHT22;5396;50.950;6.988;2023-04-01T05:10:31;9.50;99.90
10692;DHT22;5396;50.950;6.988;2023-04-01T05:12:57;9.50;99.90
10692;DHT22;5396;50.950;6.988;2023-04-01T05:15:23;9.50;99.90
10692;DHT22;5396;50.950;6.988;2023-04-01T05:17:48;9.50;99.90
10692;DHT22;5396;50.950;6.988;2023-04-01T05:20:14;9.50;99.90
10692;DHT22;5396;50.950;6.988;2023-04-01T05:22:42;9.50;99.90
10692;DHT22;5396;50.950;6.988;2023-04-01T05:25:08;9.50;99.90
10692;DHT22;5396;50.950;6.988;2023-04-01T05:27:33;9.50;99.90
10692;DHT22;5396;50.950;6.988;2023-04-01T05:29:59;9.50;99.90
10692;DHT22;5396;50.950;6.988;2023-04-01T05:32:24;9.50;99.90
10692;DHT22;5396;50.950;6.988;2023-04-01T05:34:51;9.60;99.90
10692;DHT22;5396;50.950;6.988;2023-04-01T05:37:18;9.60;99.90
10692;DHT22;5396;50.950;6.988;2023-04-01T05:39:44;9.50;99.90
10692;DHT22;5396;50.950;6.988;2023-04-01T05:42:12;9.60;99.90
10692;DHT22;5396;50.950;6.988;2023-04-01T05:44:38;9.60;99.90
10692;DHT22;5396;50.950;6.988;2023-04-01T05:47:10;9.60;99.90
10692;DHT22;5396;50.950;6.988;2023-04-01T05:50:25;9.50;99.90
10692;DHT22;5396;50.950;6.988;2023-04-01T05:52:50;9.60;99.90
10692;DHT22;5396;50.950;6.988;2023-04-01T05:55:16;9.50;99.90
10692;DHT22;5396;50.950;6.988;2023-04-01T05:57:47;9.50;99.90
10692;DHT22;5396;50.950;6.988;2023-04-01T06:00:16;9.50;99.90
10692;DHT22;5396;50.950;6.988;2023-04-01T06:02:56;9.50;99.90
10692;DHT22;5396;50.950;6.988;2023-04-01T06:05:28;9.50;99.90
10692;DHT22;5396;50.950;6.988;2023-04-01T06:07:59;9.50;99.90
10692;DHT22;5396;50.950;6.988;2023-04-01T06:14:05;9.50;99.90
10692;DHT22;5396;50.950;6.988;2023-04-01T06:17:06;9.40;99.90
10692;DHT22;5396;50.950;6.988;2023-04-01T06:37:10;9.60;99.90
10692;DHT22;5396;50.950;6.988;2023-04-01T06:45:41;9.60;99.90
10692;DHT22;5396;50.950;6.988;2023-04-01T06:48:21;9.70;99.90
10692;DHT22;5396;50.950;6.988;2023-04-01T06:51:06;9.70;99.90
10692;DHT22;5396;50.950;6.988;2023-04-01T06:56:23;9.80;99.90
10692;DHT22;5396;50.950;6.988;2023-04-01T06:59:12;9.80;99.90
10692;DHT22;5396;50.950;6.988;2023-04-01T07:02:01;9.90;99.90
10692;DHT22;5396;50.950;6.988;2023-04-01T07:04:32;9.90;99.90
10692;DHT22;5396;50.950;6.988;2023-04-01T07:07:04;10.00;99.90
10692;DHT22;5396;50.950;6.988;2023-04-01T07:09:40;9.90;99.90
10692;DHT22;5396;50.950;6.988;2023-04-01T07:12:28;9.90;99.90
10692;DHT22;5396;50.950;6.988;2023-04-01T07:14:58;9.80;99.90
10692;DHT22;5396;50.950;6.988;2023-04-01T07:17:30;9.80;99.90
10692;DHT22;5396;50.950;6.988;2023-04-01T07:20:04;9.80;99.90
10692;DHT22;5396;50.950;6.988;2023-04-01T07:22:45;9.70;99.90
10692;DHT22;5396;50.950;6.988;2023-04-01T07:25:39;9.70;99.90
10692;DHT22;5396;50.950;6.988;2023-04-01T07:28:06;9.70;99.90
10692;DHT22;5396;50.950;6.988;2023-04-01T07:36:25;9.70;99.90
10692;DHT22;5396;50.950;6.988;2023-04-01T07:39:14;9.70;99.90
10692;DHT22;5396;50.950;6.988;2023-04-01T07:42:09;9.60;99.90
10692;DHT22;5396;50.950;6.988;2023-04-01T07:50:12;9.70;99.90
10692;DHT22;5396;50.950;6.988;2023-04-01T08:01:23;9.80;99.90
10692;DHT22;5396;50.950;6.988;2023-04-01T08:06:51;9.80;99.90
10692;DHT22;5396;50.950;6.988;2023-04-01T08:12:48;9.80;99.90
10692;DHT22;5396;50.950;6.988;2023-04-01T08:15:26;9.80;99.90
10692;DHT22;5396;50.950;6.988;2023-04-01T08:18:40;9.80;99.90
10692;DHT22;5396;50.950;6.988;2023-04-01T08:21:02;9.80;99.90
10692;DHT22;5396;50.950;6.988;2023-04-01T08:23:41;9.80;99.90
10692;DHT22;5396;50.950;6.988;2023-04-01T08:26:11;9.80;99.90
10692;DHT22;5396;50.950;6.988;2023-04-01T08:28:45;9.80;99.90
10692;DHT22;5396;50.950;6.988;2023-04-01T08:34:03;9.80;99.90
10692;DHT22;5396;50.950;6.988;2023-04-01T08:36:43;9.80;99.90
10692;DHT22;5396;50.950;6.988;2023-04-01T08:39:34;9.80;99.90
10692;DHT22;5396;50.950;6.988;2023-04-01T08:48:27;9.80;99.90
10692;DHT22;5396;50.950;6.988;2023-04-01T09:08:09;10.00;99.90
10692;DHT22;5396;50.950;6.988;2023-04-01T09:10:49;10.00;99.90
10692;DHT22;5396;50.950;6.988;2023-04-01T09:19:04;10.00;99.90
10692;DHT22;5396;50.950;6.988;2023-04-01T09:36:03;9.90;99.90
10692;DHT22;5396;50.950;6.988;2023-04-01T09:38:39;9.90;99.90
10692;DHT22;5396;50.950;6.988;2023-04-01T09:44:02;9.90;99.90
10692;DHT22;5396;50.950;6.988;2023-04-01T09:46:42;9.90;99.90
10692;DHT22;5396;50.950;6.988;2023-04-01T09:52:31;9.90;99.90
10692;DHT22;5396;50.950;6.988;2023-04-01T09:57:58;10.00;99.90
10692;DHT22;5396;50.950;6.988;2023-04-01T10:14:54;10.00;99.90
10692;DHT22;5396;50.950;6.988;2023-04-01T10:32:12;10.40;99.90
10692;DHT22;5396;50.950;6.988;2023-04-01T10:46:24;10.60;99.90
10692;DHT22;5396;50.950;6.988;2023-04-01T11:03:34;11.10;99.90
10692;DHT22;5396;50.950;6.988;2023-04-01T11:09:22;11.10;99.90
10692;DHT22;5396;50.950;6.988;2023-04-01T11:12:15;11.10;99.90
10692;DHT22;5396;50.950;6.988;2023-04-01T11:15:09;11.10;99.90
10692;DHT22;5396;50.950;6.988;2023-04-01T11:17:52;11.20;99.90
10692;DHT22;5396;50.950;6.988;2023-04-01T11:24:14;11.30;99.90
10692;DHT22;5396;50.950;6.988;2023-04-01T11:35:23;11.30;99.90
10692;DHT22;5396;50.950;6.988;2023-04-01T11:38:19;11.40;99.90
10692;DHT22;5396;50.950;6.988;2023-04-01T11:47:10;11.50;99.90
10692;DHT22;5396;50.950;6.988;2023-04-01T11:50:13;11.70;99.90
10692;DHT22;5396;50.950;6.988;2023-04-01T11:53:04;11.80;99.90
10692;DHT22;5396;50.950;6.988;2023-04-01T11:55:47;11.90;99.90
10692;DHT22;5396;50.950;6.988;2023-04-01T12:04:00;11.80;99.90
10692;DHT22;5396;50.950;6.988;2023-04-01T12:06:53;11.70;99.90
10692;DHT22;5396;50.950;6.988;2023-04-01T12:15:21;11.50;99.90
10692;DHT22;5396;50.950;6.988;2023-04-01T12:26:15;11.50;99.90
10692;DHT22;5396;50.950;6.988;2023-04-01T12:29:03;11.60;99.90
10692;DHT22;5396;50.950;6.988;2023-04-01T12:32:03;11.70;99.90
10692;DHT22;5396;50.950;6.988;2023-04-01T13:04:51;11.50;99.90
10692;DHT22;5396;50.950;6.988;2023-04-01T13:16:14;11.80;99.90
10692;DHT22;5396;50.950;6.988;2023-04-01T13:24:31;12.00;99.90
10692;DHT22;5396;50.950;6.988;2023-04-01T13:27:18;12.00;99.90
10692;DHT22;5396;50.950;6.988;2023-04-01T13:35:48;12.10;99.90
10692;DHT22;5396;50.950;6.988;2023-04-01T13:44:11;12.00;99.90
10692;DHT22;5396;50.950;6.988;2023-04-01T13:49:25;11.90;99.90
10692;DHT22;5396;50.950;6.988;2023-04-01T13:52:21;11.70;99.90
10692;DHT22;5396;50.950;6.988;2023-04-01T13:55:00;11.40;99.90
10692;DHT22;5396;50.950;6.988;2023-04-01T14:06:00;10.90;99.90
10692;DHT22;5396;50.950;6.988;2023-04-01T14:11:25;10.80;99.90
10692;DHT22;5396;50.950;6.988;2023-04-01T14:32:51;10.80;99.90
10692;DHT22;5396;50.950;6.988;2023-04-01T14:38:35;10.70;99.90
10692;DHT22;5396;50.950;6.988;2023-04-01T14:41:42;10.60;99.90
10692;DHT22;5396;50.950;6.988;2023-04-01T14:49:52;10.60;99.90
10692;DHT22;5396;50.950;6.988;2023-04-01T14:52:36;10.60;99.90
10692;DHT22;5396;50.950;6.988;2023-04-01T14:55:26;10.50;99.90
10692;DHT22;5396;50.950;6.988;2023-04-01T14:58:16;10.50;99.90
10692;DHT22;5396;50.950;6.988;2023-04-01T15:03:20;10.50;99.90
10692;DHT22;5396;50.950;6.988;2023-04-01T15:11:57;10.50;99.90
10692;DHT22;5396;50.950;6.988;2023-04-01T15:14:52;10.50;99.90
10692;DHT22;5396;50.950;6.988;2023-04-01T15:17:29;10.60;99.90
10692;DHT22;5396;50.950;6.988;2023-04-01T15:31:33;10.60;99.90
10692;DHT22;5396;50.950;6.988;2023-04-01T15:34:30;10.70;99.90
10692;DHT22;5396;50.950;6.988;2023-04-01T15:40:11;10.90;99.90
10692;DHT22;5396;50.950;6.988;2023-04-01T15:48:18;10.90;99.90
10692;DHT22;5396;50.950;6.988;2023-04-01T16:02:51;10.70;99.90
10692;DHT22;5396;50.950;6.988;2023-04-01T16:13:46;10.50;99.90
10692;DHT22;5396;50.950;6.988;2023-04-01T16:16:28;10.40;99.90
10692;DHT22;5396;50.950;6.988;2023-04-01T16:19:22;10.40;99.90
10692;DHT22;5396;50.950;6.988;2023-04-01T16:22:00;10.40;99.90
10692;DHT22;5396;50.950;6.988;2023-04-01T16:24:35;10.50;99.90
10692;DHT22;5396;50.950;6.988;2023-04-01T16:30:55;10.50;99.90
10692;DHT22;5396;50.950;6.988;2023-04-01T16:33:49;10.60;99.90
10692;DHT22;5396;50.950;6.988;2023-04-01T16:39:53;10.60;99.90
10692;DHT22;5396;50.950;6.988;2023-04-01T16:45:31;10.40;99.90
10692;DHT22;5396;50.950;6.988;2023-04-01T16:48:11;10.20;99.90
10692;DHT22;5396;50.950;6.988;2023-04-01T16:53:47;10.10;99.90
10692;DHT22;5396;50.950;6.988;2023-04-01T16:56:20;10.10;99.90
10692;DHT22;5396;50.950;6.988;2023-04-01T17:01:36;10.10;99.90
10692;DHT22;5396;50.950;6.988;2023-04-01T17:04:28;10.00;99.90
10692;DHT22;5396;50.950;6.988;2023-04-01T17:07:05;10.10;99.90
10692;DHT22;5396;50.950;6.988;2023-04-01T17:10:00;10.00;99.90
10692;DHT22;5396;50.950;6.988;2023-04-01T17:12:38;10.00;99.90
10692;DHT22;5396;50.950;6.988;2023-04-01T17:15:29;10.00;99.90
10692;DHT22;5396;50.950;6.988;2023-04-01T17:28:58;9.90;99.90
10692;DHT22;5396;50.950;6.988;2023-04-01T17:31:53;9.90;99.90
10692;DHT22;5396;50.950;6.988;2023-04-01T17:34:46;9.90;99.90
10692;DHT22;5396;50.950;6.988;2023-04-01T17:42:40;9.80;99.90
10692;DHT22;5396;50.950;6.988;2023-04-01T17:51:10;9.80;99.90
10692;DHT22;5396;50.950;6.988;2023-04-01T17:59:31;9.80;99.90
10692;DHT22;5396;50.950;6.988;2023-04-01T18:08:04;9.70;99.90
10692;DHT22;5396;50.950;6.988;2023-04-01T18:10:49;9.70;99.90
10692;DHT22;5396;50.950;6.988;2023-04-01T18:16:22;9.80;99.90
10692;DHT22;5396;50.950;6.988;2023-04-01T18:24:29;9.70;99.90
10692;DHT22;5396;50.950;6.988;2023-04-01T18:29:54;9.70;99.90
10692;DHT22;5396;50.950;6.988;2023-04-01T18:35:57;9.60;99.90
10692;DHT22;5396;50.950;6.988;2023-04-01T18:38:39;9.50;99.90
10692;DHT22;5396;50.950;6.988;2023-04-01T18:41:36;9.50;99.90
10692;DHT22;5396;50.950;6.988;2023-04-01T18:51:59;9.50;99.90
10692;DHT22;5396;50.950;6.988;2023-04-01T18:54:30;9.50;99.90
10692;DHT22;5396;50.950;6.988;2023-04-01T18:57:18;9.40;99.90
10692;DHT22;5396;50.950;6.988;2023-04-01T18:59:55;9.40;99.90
10692;DHT22;5396;50.950;6.988;2023-04-01T19:02:34;9.40;99.90
10692;DHT22;5396;50.950;6.988;2023-04-01T19:07:50;9.40;99.90
10692;DHT22;5396;50.950;6.988;2023-04-01T19:10:37;9.40;99.90
10692;DHT22;5396;50.950;6.988;2023-04-01T19:16:05;9.30;99.90
10692;DHT22;5396;50.950;6.988;2023-04-01T19:18:41;9.40;99.90
10692;DHT22;5396;50.950;6.988;2023-04-01T19:30:00;9.40;99.90
10692;DHT22;5396;50.950;6.988;2023-04-01T19:32:53;9.40;99.90
10692;DHT22;5396;50.950;6.988;2023-04-01T19:50:52;9.30;99.90
10692;DHT22;5396;50.950;6.988;2023-04-01T19:53:31;9.40;99.90
10692;DHT22;5396;50.950;6.988;2023-04-01T20:04:08;9.30;99.90
10692;DHT22;5396;50.950;6.988;2023-04-01T20:06:44;9.30;99.90
10692;DHT22;5396;50.950;6.988;2023-04-01T20:12:24;9.30;99.90
10692;DHT22;5396;50.950;6.988;2023-04-01T20:14:59;9.20;99.90
10692;DHT22;5396;50.950;6.988;2023-04-01T20:25:16;9.20;99.90
10692;DHT22;5396;50.950;6.988;2023-04-01T20:28:02;9.20;99.90
10692;DHT22;5396;50.950;6.988;2023-04-01T20:41:37;9.10;99.90
10692;DHT22;5396;50.950;6.988;2023-04-01T21:00:29;9.10;99.90
10692;DHT22;5396;50.950;6.988;2023-04-01T21:08:35;9.10;99.90
10692;DHT22;5396;50.950;6.988;2023-04-01T21:11:37;9.10;99.90
10692;DHT22;5396;50.950;6.988;2023-04-01T21:20:38;9.10;99.90
10692;DHT22;5396;50.950;6.988;2023-04-01T21:26:26;9.10;99.90
10692;DHT22;5396;50.950;6.988;2023-04-01T21:29:29;9.10;99.90
10692;DHT22;5396;50.950;6.988;2023-04-01T21:32:41;9.10;99.90
10692;DHT22;5396;50.950;6.988;2023-04-01T21:41:25;9.10;99.90
10692;DHT22;5396;50.950;6.988;2023-04-01T22:01:39;9.00;99.90
10692;DHT22;5396;50.950;6.988;2023-04-01T22:09:10;9.10;99.90
10692;DHT22;5396;50.950;6.988;2023-04-01T22:12:01;9.10;99.90
10692;DHT22;5396;50.950;6.988;2023-04-01T22:17:32;9.10;99.90
10692;DHT22;5396;50.950;6.988;2023-04-01T22:20:14;9.10;99.90
10692;DHT22;5396;50.950;6.988;2023-04-01T22:25:54;9.10;99.90
10692;DHT22;5396;50.950;6.988;2023-04-01T22:28:30;9.10;99.90
10692;DHT22;5396;50.950;6.988;2023-04-01T22:31:00;9.20;99.90
10692;DHT22;5396;50.950;6.988;2023-04-01T22:33:38;9.20;99.90
10692;DHT22;5396;50.950;6.988;2023-04-01T22:42:18;9.10;99.90
10692;DHT22;5396;50.950;6.988;2023-04-01T22:44:50;9.10;99.90
10692;DHT22;5396;50.950;6.988;2023-04-01T22:51:10;9.10;99.90
10692;DHT22;5396;50.950;6.988;2023-04-01T22:56:21;9.10;99.90
10692;DHT22;5396;50.950;6.988;2023-04-01T22:59:30;9.20;99.90
10692;DHT22;5396;50.950;6.988;2023-04-01T23:01:57;9.20;99.90
10692;DHT22;5396;50.950;6.988;2023-04-01T23:04:31;9.20;99.90
10692;DHT22;5396;50.950;6.988;2023-04-01T23:07:01;9.20;99.90
10692;DHT22;5396;50.950;6.988;2023-04-01T23:09:29;9.20;99.90
10692;DHT22;5396;50.950;6.988;2023-04-01T23:12:03;9.20;99.90
10692;DHT22;5396;50.950;6.988;2023-04-01T23:14:37;9.20;99.90
10692;DHT22;5396;50.950;6.988;2023-04-01T23:25:18;9.20;99.90
10692;DHT22;5396;50.950;6.988;2023-04-01T23:30:47;9.20;99.90
10692;DHT22;5396;50.950;6.988;2023-04-01T23:35:51;9.20;99.90
10692;DHT22;5396;50.950;6.988;2023-04-01T23:38:22;9.30;99.90
10692;DHT22;5396;50.950;6.988;2023-04-01T23:40:50;9.30;99.90
10692;DHT22;5396;50.950;6.988;2023-04-01T23:43:37;9.30;99.90
10692;DHT22;5396;50.950;6.988;2023-04-01T23:46:05;9.30;99.90
10692;DHT22;5396;50.950;6.988;2023-04-01T23:48:42;9.30;99.90
10692;DHT22;5396;50.950;6.988;2023-04-01T23:51:29;9.40;99.90
10692;DHT22;5396;50.950;6.988;2023-04-01T23:53:59;9.30;99.90
10692;DHT22;5396;50.950;6.988;2023-04-01T23:56:53;9.30;99.90
10692;DHT22;5396;50.950;6.988;2023-04-01T23:59:31;9.30;99.90
